Time;durP1;ratioP1;P1;durP2;ratioP2;P2;SDS_P1;SDS_P2;PMS_P1;PMS_P2;Temp;Humidity;BMP_temperature;BMP_pressure;BME280_temperature;BME280_humidity;BME280_pressure;Samples;Min_cycle;Max_cycle;Signal;HPM_P1;HPM_P2
2022/07/03 00:00:33;;;;;;;;;;;;;;;29.28;27.10;100776.31;4411784;32;20005;-68
2022/07/03 00:02:59;;;;;;;;;;;;;;;29.40;27.11;100779.66;4413631;32;20595;-68
2022/07/03 00:05:25;;;;;;;;;;;;;;;29.05;27.60;100778.22;4413942;32;20264;-67
2022/07/03 00:07:51;;;;;;;;;;;;;;;29.17;27.45;100781.62;4410072;32;20692;-67
2022/07/03 00:10:16;;;;;;;;;;;;;;;29.12;27.48;100786.22;4409810;32;20039;-67
2022/07/03 00:12:42;;;;;;;;;;;;;;;29.08;27.47;100788.69;4411499;32;20021;-68
2022/07/03 00:15:08;;;;;;;;;;;;;;;29.12;27.46;100785.44;4413993;32;20212;-67
2022/07/03 00:17:34;;;;;;;;;;;;;;;29.10;27.52;100783.09;4413747;32;20941;-68
2022/07/03 00:20:00;;;;;;;;;;;;;;;29.14;27.51;100785.66;4416963;32;19969;-68
2022/07/03 00:22:25;;;;;;;;;;;;;;;29.04;27.44;100779.56;4414590;32;20009;-68
2022/07/03 00:24:52;;;;;;;;;;;;;;;29.08;27.48;100790.81;4416195;32;20013;-68
2022/07/03 00:27:19;;;;;;;;;;;;;;;28.94;27.56;100787.19;4412578;32;20025;-67
2022/07/03 00:29:45;;;;;;;;;;;;;;;28.91;27.75;100788.31;4413609;32;19953;-68
2022/07/03 00:32:12;;;;;;;;;;;;;;;28.93;27.67;100791.44;4411926;32;19961;-67
2022/07/03 00:34:39;;;;;;;;;;;;;;;28.92;27.80;100790.66;4413765;32;20017;-67
2022/07/03 00:37:07;;;;;;;;;;;;;;;28.94;27.69;100790.88;4415984;32;20026;-68
2022/07/03 00:39:35;;;;;;;;;;;;;;;28.88;27.75;100792.34;4414858;32;20386;-68
2022/07/03 00:42:02;;;;;;;;;;;;;;;28.79;27.88;100790.72;4413154;32;20011;-67
2022/07/03 00:44:29;;;;;;;;;;;;;;;28.78;28.06;100792.06;4414597;32;20392;-67
2022/07/03 00:46:55;;;;;;;;;;;;;;;28.49;28.12;100784.62;4415676;32;19973;-67
2022/07/03 00:49:22;;;;;;;;;;;;;;;28.59;28.01;100790.72;4416255;32;20015;-68
2022/07/03 00:51:50;;;;;;;;;;;;;;;28.65;27.82;100788.44;4413708;32;20001;-68
2022/07/03 00:54:17;;;;;;;;;;;;;;;28.54;27.98;100792.41;4414982;32;20008;-67
2022/07/03 00:56:46;;;;;;;;;;;;;;;28.58;28.11;100786.25;4415055;32;20013;-67
2022/07/03 00:59:12;;;;;;;;;;;;;;;28.45;28.19;100777.59;4415665;32;20019;-67
2022/07/03 01:01:38;;;;;;;;;;;;;;;28.22;28.33;100777.34;4413414;32;20037;-67
2022/07/03 01:04:08;;;;;;;;;;;;;;;28.13;28.36;100789.37;4416113;32;20041;-68
2022/07/03 01:06:39;;;;;;;;;;;;;;;28.13;27.97;100791.50;4413553;32;20335;-67
2022/07/03 01:09:05;;;;;;;;;;;;;;;28.09;28.21;100794.72;4413362;32;21075;-67
2022/07/03 01:11:47;;;;;;;;;;;;;;;27.81;28.45;100791.62;4415050;32;19989;-67
2022/07/03 01:14:33;;;;;;;;;;;;;;;27.96;28.33;100791.09;4414138;32;20492;-67
2022/07/03 01:17:03;;;;;;;;;;;;;;;28.30;27.88;100786.91;4415997;32;19957;-67
2022/07/03 01:22:20;;;;;;;;;;;;;;;28.73;27.53;100792.19;3950412;32;15721570;-68
2022/07/03 01:27:27;;;;;;;;;;;;;;;28.51;27.66;100793.53;3969229;32;15725561;-68
2022/07/03 01:30:10;;;;;;;;;;;;;;;28.35;27.78;100788.88;4443782;32;19972;-68
2022/07/03 01:32:38;;;;;;;;;;;;;;;28.42;27.80;100793.19;4444886;32;19949;-68
2022/07/03 01:35:06;;;;;;;;;;;;;;;28.45;27.58;100792.87;4445286;32;20041;-69
2022/07/03 01:37:33;;;;;;;;;;;;;;;28.52;27.49;100792.19;4441519;32;19953;-69
2022/07/03 01:40:01;;;;;;;;;;;;;;;28.43;27.59;100789.75;4443977;32;20406;-69
2022/07/03 01:42:28;;;;;;;;;;;;;;;28.08;27.91;100795.28;4446507;32;19968;-69
2022/07/03 01:44:56;;;;;;;;;;;;;;;28.48;27.37;100791.75;4442115;32;20800;-69
2022/07/03 01:47:24;;;;;;;;;;;;;;;28.47;27.38;100790.19;4439981;32;19993;-69
2022/07/03 01:49:49;;;;;;;;;;;;;;;28.34;27.47;100786.53;4439246;32;20004;-69
2022/07/03 01:52:16;;;;;;;;;;;;;;;28.41;27.46;100774.28;4443204;32;19953;-69
2022/07/03 01:54:42;;;;;;;;;;;;;;;28.45;27.44;100775.50;4442771;32;20026;-69
2022/07/03 01:57:08;;;;;;;;;;;;;;;28.37;27.50;100783.28;4443061;32;19991;-68
2022/07/03 01:59:35;;;;;;;;;;;;;;;28.17;27.76;100786.94;4442613;32;20088;-68
2022/07/03 02:02:08;;;;;;;;;;;;;;;28.47;27.10;100784.41;4447592;32;20382;-68
2022/07/03 02:04:44;;;;;;;;;;;;;;;28.27;27.42;100784.34;4439767;32;20417;-68
2022/07/03 02:07:21;;;;;;;;;;;;;;;28.50;27.05;100786.16;4445071;32;20011;-67
2022/07/03 02:09:49;;;;;;;;;;;;;;;28.69;27.11;100774.41;4443458;32;19953;-67
2022/07/03 02:12:17;;;;;;;;;;;;;;;28.74;26.97;100785.06;4445595;32;19961;-67
2022/07/03 02:14:49;;;;;;;;;;;;;;;28.79;26.89;100784.94;4447307;32;20030;-67
2022/07/03 02:20:00;;;;;;;;;;;;;;;28.71;27.03;100784.06;3950092;32;15724560;-67
2022/07/03 02:22:42;;;;;;;;;;;;;;;28.63;27.14;100780.31;4433018;32;19996;-67
2022/07/03 02:25:08;;;;;;;;;;;;;;;28.49;27.23;100775.16;4432254;32;19985;-67
2022/07/03 02:27:41;;;;;;;;;;;;;;;28.35;27.41;100771.50;4428244;32;19989;-67
2022/07/03 02:30:07;;;;;;;;;;;;;;;28.06;27.76;100777.72;4433053;32;19958;-67
2022/07/03 02:32:38;;;;;;;;;;;;;;;28.07;27.72;100764.81;4432367;32;20017;-67
2022/07/03 02:35:05;;;;;;;;;;;;;;;27.98;27.66;100771.81;4433068;32;19965;-67
2022/07/03 02:37:34;;;;;;;;;;;;;;;27.79;27.90;100776.94;4430260;32;20327;-67
2022/07/03 02:40:06;;;;;;;;;;;;;;;27.95;27.79;100770.03;4432063;32;20314;-67
2022/07/03 02:42:37;;;;;;;;;;;;;;;27.81;27.86;100770.59;4431569;32;19957;-67
2022/07/03 02:45:05;;;;;;;;;;;;;;;27.52;28.26;100774.62;4429597;32;20667;-67
2022/07/03 02:47:35;;;;;;;;;;;;;;;27.60;28.38;100773.41;4432072;32;20115;-67
2022/07/03 02:50:04;;;;;;;;;;;;;;;27.63;28.27;100771.50;4431774;32;19989;-67
2022/07/03 02:52:49;;;;;;;;;;;;;;;27.61;28.32;100777.84;4430016;32;20045;-67
2022/07/03 02:55:35;;;;;;;;;;;;;;;27.64;28.29;100779.63;4430052;32;20009;-67
2022/07/03 02:58:20;;;;;;;;;;;;;;;27.77;27.96;100770.97;4431228;32;20004;-67
2022/07/03 03:00:58;;;;;;;;;;;;;;;27.68;28.15;100776.41;4430594;32;20018;-67
2022/07/03 03:03:26;;;;;;;;;;;;;;;27.62;28.01;100773.63;4432982;32;20376;-67
2022/07/03 03:05:55;;;;;;;;;;;;;;;27.91;27.92;100778.28;4433885;32;20056;-67
2022/07/03 03:08:41;;;;;;;;;;;;;;;27.77;28.01;100775.97;4432056;32;20016;-67
2022/07/03 03:11:08;;;;;;;;;;;;;;;27.28;28.70;100769.84;4433369;32;20251;-67
2022/07/03 03:13:34;;;;;;;;;;;;;;;27.01;29.12;100771.09;4432565;32;19969;-67
2022/07/03 03:18:39;;;;;;;;;;;;;;;27.83;28.16;100776.63;3949858;32;15725589;-67
2022/07/03 03:21:08;;;;;;;;;;;;;;;27.83;28.16;100776.63;4428974;32;20000;-67
2022/07/03 03:26:11;;;;;;;;;;;;;;;28.29;27.57;100793.25;3950159;32;15722528;-67
2022/07/03 03:28:37;;;;;;;;;;;;;;;28.29;27.57;100793.25;4425941;32;19965;-67
2022/07/03 03:31:07;;;;;;;;;;;;;;;28.13;27.70;100788.63;4426518;32;20281;-67
2022/07/03 03:33:35;;;;;;;;;;;;;;;27.64;27.87;100788.28;4427639;32;20022;-67
2022/07/03 03:36:01;;;;;;;;;;;;;;;27.66;28.11;100782.75;4423787;32;21130;-67
2022/07/03 03:38:27;;;;;;;;;;;;;;;27.40;28.68;100785.66;4424270;32;20270;-67
2022/07/03 03:40:53;;;;;;;;;;;;;;;27.74;28.22;100792.31;4428829;32;20053;-67
2022/07/03 03:43:19;;;;;;;;;;;;;;;27.53;28.51;100779.87;4427600;32;19965;-67
2022/07/03 03:45:45;;;;;;;;;;;;;;;27.33;28.71;100779.75;4423663;32;19989;-67
2022/07/03 03:48:11;;;;;;;;;;;;;;;27.15;28.83;100787.91;4425079;32;19989;-67
2022/07/03 03:50:36;;;;;;;;;;;;;;;27.30;28.76;100793.19;4423514;32;20653;-67
2022/07/03 03:53:02;;;;;;;;;;;;;;;27.67;28.40;100786.44;4424969;32;19953;-67
2022/07/03 03:55:27;;;;;;;;;;;;;;;28.04;27.83;100786.94;4425912;32;19953;-67
2022/07/03 03:57:55;;;;;;;;;;;;;;;28.12;27.70;100799.41;4424698;32;19993;-67
2022/07/03 04:00:21;;;;;;;;;;;;;;;28.20;27.69;100799.50;4426065;32;20531;-67
2022/07/03 04:02:46;;;;;;;;;;;;;;;28.39;27.47;100798.00;4431134;32;20005;-67
2022/07/03 04:05:16;;;;;;;;;;;;;;;28.32;27.62;100792.13;4427449;32;19997;-67
2022/07/03 04:07:42;;;;;;;;;;;;;;;28.53;27.14;100793.72;4425315;32;19953;-67
2022/07/03 04:10:07;;;;;;;;;;;;;;;28.78;27.01;100803.63;4425915;32;20001;-67
2022/07/03 04:12:33;;;;;;;;;;;;;;;29.00;26.78;100799.41;4424729;32;20004;-67
2022/07/03 04:14:59;;;;;;;;;;;;;;;28.87;26.82;100802.41;4427515;32;20418;-67
2022/07/03 04:17:24;;;;;;;;;;;;;;;29.00;26.69;100805.97;4425718;32;19953;-67
2022/07/03 04:19:50;;;;;;;;;;;;;;;29.11;26.53;100810.72;4428376;32;20394;-67
2022/07/03 04:22:16;;;;;;;;;;;;;;;29.39;26.31;100804.97;4427682;32;20031;-67
2022/07/03 04:24:41;;;;;;;;;;;;;;;29.55;26.16;100809.56;4423643;32;19972;-67
2022/07/03 04:27:07;;;;;;;;;;;;;;;29.47;25.86;100813.72;4427847;32;19997;-67
2022/07/03 04:29:32;;;;;;;;;;;;;;;29.65;26.15;100810.59;4427456;32;19996;-67
2022/07/03 04:31:58;;;;;;;;;;;;;;;29.70;25.92;100814.69;4427955;32;20004;-67
2022/07/03 04:34:25;;;;;;;;;;;;;;;29.86;25.87;100811.31;4428551;32;20307;-67
2022/07/03 04:36:50;;;;;;;;;;;;;;;30.08;25.54;100816.47;4423017;32;19997;-67
2022/07/03 04:39:16;;;;;;;;;;;;;;;30.13;25.47;100818.41;4417060;32;20005;-67
2022/07/03 04:41:41;;;;;;;;;;;;;;;30.00;25.58;100821.44;4413479;32;20245;-67
2022/07/03 04:44:07;;;;;;;;;;;;;;;30.25;25.40;100830.50;4416026;32;20319;-67
2022/07/03 04:46:32;;;;;;;;;;;;;;;30.42;25.16;100824.94;4415473;32;20004;-67
2022/07/03 04:48:58;;;;;;;;;;;;;;;30.54;25.01;100831.94;4415344;32;20300;-67
2022/07/03 04:51:23;;;;;;;;;;;;;;;30.67;24.96;100825.97;4417953;32;19980;-67
2022/07/03 04:53:48;;;;;;;;;;;;;;;30.79;24.75;100830.91;4415883;32;19997;-67
2022/07/03 04:56:14;;;;;;;;;;;;;;;30.74;24.58;100834.00;4416360;32;20005;-67
2022/07/03 04:58:40;;;;;;;;;;;;;;;30.93;24.68;100819.87;4415600;32;20295;-67
2022/07/03 05:01:06;;;;;;;;;;;;;;;30.83;24.75;100823.91;4414924;32;20001;-67
2022/07/03 05:03:31;;;;;;;;;;;;;;;31.00;24.66;100833.63;4413300;32;19965;-67
2022/07/03 05:05:57;;;;;;;;;;;;;;;31.03;24.70;100828.78;4416787;32;19958;-67
2022/07/03 05:08:23;;;;;;;;;;;;;;;31.02;24.68;100836.75;4414741;32;20407;-67
2022/07/03 05:10:48;;;;;;;;;;;;;;;30.84;24.87;100837.88;4414696;32;19977;-67
2022/07/03 05:13:13;;;;;;;;;;;;;;;31.25;24.65;100843.34;4417157;32;20442;-67
2022/07/03 05:15:39;;;;;;;;;;;;;;;31.36;24.46;100840.09;4417850;32;19953;-67
2022/07/03 05:18:04;;;;;;;;;;;;;;;31.38;24.54;100851.91;4416383;32;20236;-67
2022/07/03 05:20:30;;;;;;;;;;;;;;;31.44;24.62;100837.94;4413881;32;19989;-67
2022/07/03 05:22:57;;;;;;;;;;;;;;;31.53;24.51;100839.50;4416507;32;20370;-67
2022/07/03 05:25:23;;;;;;;;;;;;;;;31.26;24.82;100847.03;4414948;32;19989;-67
2022/07/03 05:27:50;;;;;;;;;;;;;;;31.43;24.87;100848.03;4415516;32;20003;-67
2022/07/03 05:30:16;;;;;;;;;;;;;;;31.48;24.82;100843.37;4417021;32;20008;-67
2022/07/03 05:32:42;;;;;;;;;;;;;;;31.36;24.96;100853.84;4416551;32;19964;-67
2022/07/03 05:35:07;;;;;;;;;;;;;;;31.27;25.25;100839.84;4414356;32;20001;-67
2022/07/03 05:37:33;;;;;;;;;;;;;;;30.93;25.43;100843.13;4415129;32;20387;-67
2022/07/03 05:39:58;;;;;;;;;;;;;;;30.98;25.58;100842.16;4415999;32;19964;-67
2022/07/03 05:42:24;;;;;;;;;;;;;;;31.32;24.98;100847.66;4415534;32;20020;-67
2022/07/03 05:44:49;;;;;;;;;;;;;;;31.19;25.13;100851.47;4417276;32;20027;-67
2022/07/03 05:47:15;;;;;;;;;;;;;;;31.47;25.03;100854.22;4412279;32;20067;-67
2022/07/03 05:49:40;;;;;;;;;;;;;;;31.73;24.69;100865.47;4413441;32;20000;-67
2022/07/03 05:52:06;;;;;;;;;;;;;;;31.51;24.90;100863.34;4414923;32;19971;-67
2022/07/03 05:54:31;;;;;;;;;;;;;;;31.49;25.07;100862.38;4413667;32;19997;-67
2022/07/03 05:56:56;;;;;;;;;;;;;;;31.38;25.29;100862.78;4414652;32;19999;-67
2022/07/03 05:59:22;;;;;;;;;;;;;;;31.35;25.11;100858.88;4415422;32;19996;-67
2022/07/03 06:01:47;;;;;;;;;;;;;;;31.48;24.92;100860.81;4414407;32;20037;-67
2022/07/03 06:04:14;;;;;;;;;;;;;;;31.53;25.10;100863.53;4415010;32;20007;-67
2022/07/03 06:06:39;;;;;;;;;;;;;;;31.67;25.01;100873.63;4415505;32;19961;-67
2022/07/03 06:09:05;;;;;;;;;;;;;;;31.19;25.52;100865.22;4415515;32;19967;-67
2022/07/03 06:11:31;;;;;;;;;;;;;;;31.77;24.73;100865.84;4412220;32;20061;-67
2022/07/03 06:13:56;;;;;;;;;;;;;;;31.77;24.71;100867.97;4414243;32;19997;-67
2022/07/03 06:16:22;;;;;;;;;;;;;;;31.81;24.66;100866.25;4413586;32;20354;-67
2022/07/03 06:18:48;;;;;;;;;;;;;;;31.92;24.69;100862.94;4413843;32;19975;-67
2022/07/03 06:21:13;;;;;;;;;;;;;;;32.27;24.40;100867.66;4414692;32;19952;-67
2022/07/03 06:23:39;;;;;;;;;;;;;;;31.77;24.85;100859.22;4411124;32;19965;-67
2022/07/03 06:26:04;;;;;;;;;;;;;;;31.98;24.74;100874.34;4415859;32;20013;-67
2022/07/03 06:28:30;;;;;;;;;;;;;;;31.72;24.89;100868.94;4414981;32;19968;-67
2022/07/03 06:30:56;;;;;;;;;;;;;;;31.91;24.71;100875.91;4412203;32;20021;-67
2022/07/03 06:33:22;;;;;;;;;;;;;;;32.22;24.50;100871.59;4413902;32;20255;-67
2022/07/03 06:35:48;;;;;;;;;;;;;;;32.45;24.25;100868.59;4414490;32;19997;-67
2022/07/03 06:38:13;;;;;;;;;;;;;;;32.49;24.11;100875.56;4412767;32;20050;-67
2022/07/03 06:40:39;;;;;;;;;;;;;;;32.64;24.09;100872.59;4411332;32;20343;-67
2022/07/03 06:43:04;;;;;;;;;;;;;;;32.31;24.52;100868.03;4414297;32;20337;-67
2022/07/03 06:45:30;;;;;;;;;;;;;;;32.97;23.83;100869.72;4414729;32;20049;-67
2022/07/03 06:47:55;;;;;;;;;;;;;;;33.26;23.45;100867.94;4414015;32;20378;-67
2022/07/03 06:50:21;;;;;;;;;;;;;;;32.63;24.18;100863.66;4415924;32;19994;-67
2022/07/03 06:52:47;;;;;;;;;;;;;;;32.31;24.91;100876.00;4413613;32;19965;-67
2022/07/03 06:55:13;;;;;;;;;;;;;;;32.58;24.77;100865.44;4412176;32;20318;-67
2022/07/03 06:57:38;;;;;;;;;;;;;;;32.35;24.88;100876.41;4417134;32;20381;-67
2022/07/03 07:00:04;;;;;;;;;;;;;;;32.15;25.16;100872.38;4415871;32;20000;-67
2022/07/03 07:02:30;;;;;;;;;;;;;;;32.22;25.20;100876.63;4414048;32;19962;-67
2022/07/03 07:04:56;;;;;;;;;;;;;;;32.05;25.60;100883.06;4414140;32;20296;-67
2022/07/03 07:07:22;;;;;;;;;;;;;;;31.78;25.85;100887.75;4413068;32;19957;-67
2022/07/03 07:09:48;;;;;;;;;;;;;;;31.91;25.55;100881.72;4414387;32;20299;-67
2022/07/03 07:12:14;;;;;;;;;;;;;;;32.21;25.38;100881.66;4413026;32;20531;-67
2022/07/03 07:14:40;;;;;;;;;;;;;;;32.11;25.36;100883.66;4414544;32;20023;-68
2022/07/03 07:17:05;;;;;;;;;;;;;;;32.12;25.60;100879.34;4403199;32;19941;-68
2022/07/03 07:19:31;;;;;;;;;;;;;;;31.56;26.41;100879.03;4413011;32;19972;-68
2022/07/03 07:21:57;;;;;;;;;;;;;;;31.53;26.24;100886.81;4413048;32;19993;-68
2022/07/03 07:24:22;;;;;;;;;;;;;;;31.60;26.39;100880.19;4412451;32;20222;-67
2022/07/03 07:26:48;;;;;;;;;;;;;;;31.28;26.49;100890.84;4413245;32;19965;-67
2022/07/03 07:29:15;;;;;;;;;;;;;;;31.34;26.52;100885.63;4412652;32;20001;-67
2022/07/03 07:31:40;;;;;;;;;;;;;;;31.87;25.83;100884.28;4414589;32;20001;-67
2022/07/03 07:34:06;;;;;;;;;;;;;;;31.37;26.61;100887.38;4415021;32;19993;-67
2022/07/03 07:36:32;;;;;;;;;;;;;;;31.62;26.33;100888.34;4414474;32;19962;-67
2022/07/03 07:38:57;;;;;;;;;;;;;;;31.50;26.23;100887.97;4413717;32;19962;-67
2022/07/03 07:41:22;;;;;;;;;;;;;;;31.68;26.19;100886.78;4411524;32;20033;-67
2022/07/03 07:43:48;;;;;;;;;;;;;;;31.87;26.10;100893.00;4413213;32;19996;-67
2022/07/03 07:46:14;;;;;;;;;;;;;;;31.57;26.24;100901.72;4413090;32;20008;-67
2022/07/03 07:48:41;;;;;;;;;;;;;;;31.06;27.20;100897.38;4410060;32;20035;-67
2022/07/03 07:51:06;;;;;;;;;;;;;;;31.52;26.48;100899.81;4416300;32;20004;-67
2022/07/03 07:53:32;;;;;;;;;;;;;;;31.61;26.22;100899.22;4415631;32;19988;-67
2022/07/03 07:55:58;;;;;;;;;;;;;;;32.23;25.52;100889.81;4413719;32;19961;-67
2022/07/03 07:58:23;;;;;;;;;;;;;;;32.29;25.47;100897.00;4412468;32;20052;-67
2022/07/03 08:06:20;;;;;;;;;;;;;;;32.25;25.67;100899.53;4413517;32;19997;-67
2022/07/03 08:08:46;;;;;;;;;;;;;;;32.52;25.27;100902.78;4414934;32;20004;-67
2022/07/03 08:11:11;;;;;;;;;;;;;;;33.04;24.61;100895.88;4413180;32;20030;-67
2022/07/03 08:13:37;;;;;;;;;;;;;;;33.53;24.25;100898.09;4414917;32;20390;-67
2022/07/03 08:16:02;;;;;;;;;;;;;;;33.64;23.92;100897.59;4413374;32;20003;-67
2022/07/03 08:18:28;;;;;;;;;;;;;;;33.55;24.13;100901.19;4415349;32;20008;-67
2022/07/03 08:20:53;;;;;;;;;;;;;;;33.30;24.55;100897.47;4416090;32;21195;-67
2022/07/03 08:23:19;;;;;;;;;;;;;;;33.62;24.12;100900.38;4417802;32;20044;-67
2022/07/03 08:25:44;;;;;;;;;;;;;;;33.59;24.32;100901.56;4412578;32;20467;-67
2022/07/03 08:28:09;;;;;;;;;;;;;;;33.58;24.33;100897.06;4416949;32;20385;-67
2022/07/03 08:30:35;;;;;;;;;;;;;;;33.76;24.14;100898.66;4416854;32;20462;-68
2022/07/03 08:33:02;;;;;;;;;;;;;;;34.26;23.58;100903.81;4416196;32;20297;-68
2022/07/03 08:35:28;;;;;;;;;;;;;;;34.65;22.98;100909.97;4415729;32;19998;-68
2022/07/03 08:37:53;;;;;;;;;;;;;;;34.62;22.94;100919.97;4414908;32;20619;-68
2022/07/03 08:40:19;;;;;;;;;;;;;;;34.81;22.73;100920.12;4416194;32;20242;-68
2022/07/03 08:42:46;;;;;;;;;;;;;;;34.69;22.80;100925.72;4417967;32;20023;-67
2022/07/03 08:45:14;;;;;;;;;;;;;;;34.79;22.67;100917.03;4417099;32;20380;-67
2022/07/03 08:47:42;;;;;;;;;;;;;;;34.62;22.97;100922.88;4414996;32;20347;-68
2022/07/03 08:50:08;;;;;;;;;;;;;;;34.60;22.34;100917.66;4414331;32;19993;-68
2022/07/03 08:52:34;;;;;;;;;;;;;;;34.33;22.63;100920.47;4414662;32;19972;-68
2022/07/03 08:54:59;;;;;;;;;;;;;;;33.61;23.64;100927.97;4415232;32;20376;-68
2022/07/03 08:57:26;;;;;;;;;;;;;;;33.87;23.36;100915.72;4414626;32;20038;-68
2022/07/03 08:59:53;;;;;;;;;;;;;;;33.80;23.54;100928.97;4414351;32;20262;-68
2022/07/03 09:02:18;;;;;;;;;;;;;;;33.69;23.48;100935.31;4414409;32;19958;-68
2022/07/03 09:04:44;;;;;;;;;;;;;;;33.13;24.09;100924.41;4417217;32;20031;-68
2022/07/03 09:07:10;;;;;;;;;;;;;;;33.52;23.49;100937.41;4418450;32;20640;-67
2022/07/03 09:09:37;;;;;;;;;;;;;;;33.55;23.32;100930.38;4416615;32;19972;-68
2022/07/03 09:12:03;;;;;;;;;;;;;;;33.78;23.25;100942.66;4415099;32;19993;-68
2022/07/03 09:14:29;;;;;;;;;;;;;;;34.23;22.54;100942.22;4416195;32;19970;-68
2022/07/03 09:16:54;;;;;;;;;;;;;;;34.11;22.71;100935.31;4416918;32;20036;-68
2022/07/03 09:19:41;;;;;;;;;;;;;;;34.14;22.61;100951.66;4414669;32;20410;-68
2022/07/03 09:22:16;;;;;;;;;;;;;;;33.73;22.68;100937.81;4412593;32;19995;-68
2022/07/03 09:24:42;;;;;;;;;;;;;;;32.94;23.79;100947.47;4413682;32;20509;-68
2022/07/03 09:27:10;;;;;;;;;;;;;;;33.26;23.39;100944.56;4415916;32;20048;-68
2022/07/03 09:29:35;;;;;;;;;;;;;;;33.65;23.06;100948.78;4413798;32;19994;-68
2022/07/03 09:32:01;;;;;;;;;;;;;;;32.86;24.05;100948.87;4414612;32;19957;-68
2022/07/03 09:34:27;;;;;;;;;;;;;;;32.49;24.63;100951.31;4413376;32;20649;-68
2022/07/03 09:36:52;;;;;;;;;;;;;;;32.61;24.66;100945.87;4413483;32;19961;-68
2022/07/03 09:42:09;;;;;;;;;;;;;;;34.59;22.58;100962.09;3932436;32;15746517;-67
2022/07/03 09:44:46;;;;;;;;;;;;;;;34.59;22.58;100962.09;4410648;32;20389;-66
2022/07/03 09:47:13;;;;;;;;;;;;;;;34.65;22.07;100956.75;4393519;32;20044;-67
2022/07/03 09:49:57;;;;;;;;;;;;;;;34.68;22.00;100965.13;4411594;32;19997;-67
2022/07/03 09:57:43;;;;;;;;;;;;;;;35.50;21.21;100969.09;3949925;32;15723606;-67
2022/07/03 10:05:30;;;;;;;;;;;;;;;35.05;21.89;100966.03;3949739;32;15731446;-68
2022/07/03 10:07:57;;;;;;;;;;;;;;;35.05;21.89;100966.03;4426903;32;19945;-68
2022/07/03 10:10:24;;;;;;;;;;;;;;;35.84;21.05;100968.97;4426105;32;20352;-68
2022/07/03 10:12:51;;;;;;;;;;;;;;;35.64;20.87;100967.28;4427050;32;19995;-68
2022/07/03 10:15:17;;;;;;;;;;;;;;;35.77;20.68;100969.81;4429060;32;20284;-68
2022/07/03 10:17:43;;;;;;;;;;;;;;;35.32;21.36;100976.37;4426864;32;20352;-68
2022/07/03 10:20:13;;;;;;;;;;;;;;;34.60;22.22;100972.44;4427578;32;20000;-68
2022/07/03 10:22:41;;;;;;;;;;;;;;;34.34;22.35;100979.69;4428718;32;19957;-68
2022/07/03 10:25:07;;;;;;;;;;;;;;;33.00;23.49;100973.50;4426802;32;20005;-68
2022/07/03 10:27:33;;;;;;;;;;;;;;;33.47;23.14;100980.03;4425530;32;20002;-68
2022/07/03 10:30:00;;;;;;;;;;;;;;;33.54;23.47;100981.38;4426135;32;20000;-68
2022/07/03 10:32:26;;;;;;;;;;;;;;;33.54;22.91;100981.38;4428056;32;20001;-68
2022/07/03 10:34:52;;;;;;;;;;;;;;;33.12;23.15;100989.16;4427698;32;20736;-68
2022/07/03 10:37:21;;;;;;;;;;;;;;;33.23;23.04;100988.72;4427578;32;20000;-68
2022/07/03 10:46:01;;;;;;;;;;;;;;;34.65;21.53;100994.78;4425296;32;20104;-68
2022/07/03 10:48:47;;;;;;;;;;;;;;;34.88;21.13;100995.31;4425358;32;19953;-68
2022/07/03 10:51:13;;;;;;;;;;;;;;;34.74;21.31;101003.63;4427229;32;19953;-68
2022/07/03 10:53:39;;;;;;;;;;;;;;;34.69;21.40;100998.81;4427969;32;19961;-68
2022/07/03 10:56:04;;;;;;;;;;;;;;;33.75;22.74;100997.13;4426569;32;20150;-68
2022/07/03 10:58:30;;;;;;;;;;;;;;;35.21;21.24;101006.16;4425139;32;19971;-67
2022/07/03 11:00:58;;;;;;;;;;;;;;;34.98;21.54;101002.78;4424785;32;20422;-68
2022/07/03 11:03:43;;;;;;;;;;;;;;;34.95;21.52;101009.06;4425029;32;20599;-68
2022/07/03 11:06:08;;;;;;;;;;;;;;;35.57;20.98;100997.47;4428176;32;20021;-68
2022/07/03 11:08:54;;;;;;;;;;;;;;;35.65;20.86;101003.97;4427022;32;20295;-68
2022/07/03 11:12:04;;;;;;;;;;;;;;;35.54;20.87;100997.91;4425887;32;20000;-68
2022/07/03 11:14:19;;;;;;;;;;;;;;;35.54;20.82;101001.62;4425200;32;19962;-68
2022/07/03 11:16:45;;;;;;;;;;;;;;;36.00;20.21;100990.75;4417217;32;19989;-68
2022/07/03 11:19:11;;;;;;;;;;;;;;;37.51;18.97;100997.28;4417485;32;20032;-68
2022/07/03 11:21:40;;;;;;;;;;;;;;;37.87;18.20;100999.16;4413245;32;19989;-68
2022/07/03 11:24:26;;;;;;;;;;;;;;;38.21;17.66;100998.69;4416442;32;20001;-68
2022/07/03 11:27:11;;;;;;;;;;;;;;;36.58;18.43;101011.38;4417272;32;20490;-68
2022/07/03 11:29:36;;;;;;;;;;;;;;;35.19;20.11;101002.31;4416671;32;20020;-68
2022/07/03 11:32:22;;;;;;;;;;;;;;;35.67;19.87;101006.28;4417875;32;20008;-68
2022/07/03 11:34:50;;;;;;;;;;;;;;;35.62;19.82;100996.41;4413623;32;20023;-68
2022/07/03 11:37:23;;;;;;;;;;;;;;;35.83;19.89;101017.19;4414743;32;19970;-68
2022/07/03 11:39:52;;;;;;;;;;;;;;;37.22;18.62;100996.59;4415232;32;20362;-68
2022/07/03 11:42:18;;;;;;;;;;;;;;;37.56;18.23;100999.13;4404751;32;19954;-68
2022/07/03 11:44:46;;;;;;;;;;;;;;;37.68;17.75;100999.25;4415563;32;19993;-68
2022/07/03 11:47:14;;;;;;;;;;;;;;;37.86;17.70;100994.69;4416101;32;20005;-67
2022/07/03 11:49:47;;;;;;;;;;;;;;;39.07;16.59;100992.94;4415318;32;20512;-68
2022/07/03 11:52:13;;;;;;;;;;;;;;;39.45;15.74;100998.44;4416482;32;20325;-68
2022/07/03 11:54:55;;;;;;;;;;;;;;;39.47;15.51;101001.53;4414314;32;20037;-68
2022/07/03 11:57:20;;;;;;;;;;;;;;;39.98;15.02;101005.56;4415272;32;20378;-68
2022/07/03 11:59:46;;;;;;;;;;;;;;;39.14;15.92;101000.75;4414163;32;19965;-68
2022/07/03 12:02:11;;;;;;;;;;;;;;;39.34;15.74;100993.28;4414638;32;20315;-68
2022/07/03 12:04:38;;;;;;;;;;;;;;;38.82;16.01;100998.56;4413533;32;20001;-68
2022/07/03 12:07:03;;;;;;;;;;;;;;;37.79;16.85;101001.50;4415637;32;19991;-68
2022/07/03 12:09:33;;;;;;;;;;;;;;;37.17;16.86;100997.62;4413610;32;19961;-68
2022/07/03 12:12:00;;;;;;;;;;;;;;;37.00;17.35;101000.00;4417178;32;20374;-68
2022/07/03 12:17:19;;;;;;;;;;;;;;;36.83;17.91;101003.06;3948950;32;15724584;-68
2022/07/03 12:22:21;;;;;;;;;;;;;;;36.56;18.77;101006.13;3961188;31;15722092;-68
2022/07/03 12:24:55;;;;;;;;;;;;;;;36.56;18.77;101006.13;4426136;32;19959;-68
2022/07/03 12:27:21;;;;;;;;;;;;;;;35.41;19.90;100993.25;4425589;32;19993;-68
2022/07/03 12:29:47;;;;;;;;;;;;;;;35.60;19.81;101005.03;4428541;32;20003;-68
2022/07/03 12:32:13;;;;;;;;;;;;;;;35.38;20.21;100996.59;4427561;32;20240;-69
2022/07/03 12:34:38;;;;;;;;;;;;;;;35.59;19.75;100994.69;4427008;32;19989;-68
2022/07/03 12:37:04;;;;;;;;;;;;;;;34.87;19.67;101003.31;4425854;32;20245;-68
2022/07/03 12:39:46;;;;;;;;;;;;;;;35.08;19.49;101009.47;4426843;32;19973;-68
2022/07/03 12:42:14;;;;;;;;;;;;;;;34.92;18.78;101008.12;4427495;32;19957;-68
2022/07/03 12:44:39;;;;;;;;;;;;;;;34.31;19.33;101010.91;4427831;32;19997;-68
2022/07/03 12:47:05;;;;;;;;;;;;;;;34.91;19.20;101008.72;4428471;32;19953;-68
2022/07/03 12:49:32;;;;;;;;;;;;;;;34.85;19.71;101008.19;4428421;32;20068;-68
2022/07/03 12:51:58;;;;;;;;;;;;;;;35.17;19.67;101017.53;4428668;32;20213;-68
2022/07/03 12:54:32;;;;;;;;;;;;;;;34.48;20.42;101003.56;4424317;32;20012;-68
2022/07/03 13:00:09;;;;;;;;;;;;;;;35.37;19.30;101021.41;4427273;32;20009;-68
2022/07/03 13:02:34;;;;;;;;;;;;;;;35.56;19.31;101012.72;4426189;32;19980;-69
2022/07/03 13:05:01;;;;;;;;;;;;;;;36.45;18.63;101017.69;4425786;32;19988;-68
2022/07/03 13:07:30;;;;;;;;;;;;;;;36.00;19.10;101010.47;4427032;32;20360;-68
2022/07/03 13:09:58;;;;;;;;;;;;;;;36.00;18.87;101019.25;4425881;32;19980;-68
2022/07/03 13:12:24;;;;;;;;;;;;;;;35.09;19.45;101025.62;4428736;32;19973;-68
2022/07/03 13:15:07;;;;;;;;;;;;;;;35.25;19.48;101018.19;4425174;32;19953;-68
2022/07/03 13:17:53;;;;;;;;;;;;;;;34.96;19.76;101004.75;4425498;32;20311;-68
2022/07/03 13:20:26;;;;;;;;;;;;;;;34.48;20.50;101007.22;4425358;32;19946;-68
2022/07/03 13:22:54;;;;;;;;;;;;;;;34.18;20.76;101019.22;4428339;32;20001;-68
2022/07/03 13:25:20;;;;;;;;;;;;;;;34.23;20.59;101006.50;4426948;32;20019;-68